Strona główna
Zdjęcia satelitarne 10-dni prognozyKlimatMeteorologia morska Cyklony Błyskawica LotniskoFAQ Gazetka O
Pogoda : Europa Afryka Ameryka Północna Ameryka Południowa Azja Australia-Oceania Inny
Języki Kontakt

Katowice, Polska

Port lotniczy Katowice-Pyrzowice

Szerokość geograficzna: 50-28-27N, Długość geograficzna: 019-04-48E, wysokość: 284 m


METAR: EPKT 031530Z 09009KT 040V130 CAVOK 27/10 Q1027
TAF: EPKT 031430Z 0315/0324 11008KT CAVOK

czas: 17:36 (15:36 UTC)

Aktualna obserwacja pogody

Raport powstał 6 minut temu, godzina 15:30 UTC
Wiatr 9 kt od wschód, zmienny między północny wschód i południowy wschód
Temperatura 27°C
Wilgotność 34%
Ciśnienie 1027 hPa
Widzialność 10 km lub więcej
Brak chmur poniżej 1500 m i brak chmur cumulonimbus

Jednostka miary

Prognoza

Raport powstał 1 godzina i 6 minut temu, godzina 14:30 UTC
Prognoza ważna od 03 godzina 15 UTC do 03 godzina 24 UTC
Wiatr 8 kt od wschodnio-południowy wschód
Widzialność 10 km lub więcej
Brak chmur poniżej 1500 m i brak chmur cumulonimbus
Informacje na tej stronie internetowej podlegają klauzuli o wyłączeniu odpowiedzialności
Pogoda : Europa Afryka Ameryka Północna Ameryka Południowa Azja Australia-Oceania Inny
Zdjęcia satelitarne 10-dni prognozyKlimatMeteorologia morska Cyklony Błyskawica LotniskoFAQ Języki Kontakt Gazetka O